Time;durP1;ratioP1;P1;durP2;ratioP2;P2;SDS_P1;SDS_P2;PMS_P1;PMS_P2;Temp;Humidity;BMP_temperature;BMP_pressure;BME280_temperature;BME280_humidity;BME280_pressure;Samples;Min_cycle;Max_cycle;Signal;HPM_P1;HPM_P2
2020/12/02 00:02:10;;;;;;;54.63;17.67;;;6.10;99.90;;;;;;5051755;28;20416;-51
2020/12/02 00:04:37;;;;;;;76.22;19.52;;;3.80;99.90;;;;;;5052461;28;20405;-51
2020/12/02 00:07:05;;;;;;;83.05;19.38;;;5.90;99.90;;;;;;5051430;28;20479;-50
2020/12/02 00:09:31;;;;;;;66.55;20.05;;;4.10;99.90;;;;;;5053042;28;20369;-51
2020/12/02 00:11:57;;;;;;;98.45;24.08;;;3.60;99.90;;;;;;5051243;28;20401;-50
2020/12/02 00:14:28;;;;;;;154.27;32.47;;;3.70;99.90;;;;;;5050362;28;20404;-51
2020/12/02 00:16:54;;;;;;;81.22;20.30;;;5.10;99.90;;;;;;5052644;28;20729;-50
2020/12/02 00:19:21;;;;;;;94.72;22.15;;;6.60;99.90;;;;;;5050392;28;21330;-50
2020/12/02 00:22:10;;;;;;;96.97;21.47;;;3.70;99.90;;;;;;5051602;28;20457;-53
2020/12/02 00:24:37;;;;;;;160.93;26.92;;;3.60;99.90;;;;;;5052541;28;20401;-50
2020/12/02 00:27:25;;;;;;;124.43;27.80;;;3.60;99.90;;;;;;5052823;28;20382;-56
2020/12/02 00:29:51;;;;;;;142.03;29.20;;;3.70;99.90;;;;;;5050924;28;20425;-50
2020/12/02 00:32:42;;;;;;;102.05;25.38;;;4.30;99.90;;;;;;5051898;28;20783;-50
2020/12/02 00:35:12;;;;;;;49.25;15.77;;;3.60;99.90;;;;;;5051071;28;20398;-51
2020/12/02 00:37:37;;;;;;;84.18;20.35;;;3.40;99.90;;;;;;5051550;28;20463;-50
2020/12/02 00:40:04;;;;;;;124.80;24.30;;;3.40;99.90;;;;;;5051238;28;20971;-55
2020/12/02 00:42:30;;;;;;;93.05;22.75;;;3.20;99.90;;;;;;5051123;28;20421;-50
2020/12/02 00:44:55;;;;;;;119.38;25.67;;;3.30;99.90;;;;;;5050869;28;20446;-49
2020/12/02 00:47:23;;;;;;;90.10;22.60;;;4.30;99.90;;;;;;5050397;28;20402;-50
2020/12/02 00:49:51;;;;;;;57.85;18.65;;;3.80;99.90;;;;;;5051139;28;20500;-52
2020/12/02 00:52:17;;;;;;;45.13;16.40;;;5.10;99.90;;;;;;5050157;28;20410;-50
2020/12/02 00:54:44;;;;;;;84.70;21.08;;;3.20;99.90;;;;;;5051348;28;20488;-51
2020/12/02 00:57:13;;;;;;;56.10;19.50;;;4.00;99.90;;;;;;5049924;28;20405;-50
2020/12/02 00:59:44;;;;;;;129.60;24.73;;;4.50;99.90;;;;;;5050859;28;20385;-50
2020/12/02 01:02:21;;;;;;;138.52;28.83;;;3.20;99.90;;;;;;5049921;28;20883;-49
2020/12/02 01:04:47;;;;;;;116.13;25.42;;;3.10;99.90;;;;;;5052282;28;20476;-53
2020/12/02 01:07:14;;;;;;;92.70;23.17;;;4.00;99.90;;;;;;5049784;28;20982;-50
2020/12/02 01:09:40;;;;;;;58.10;18.23;;;3.40;99.90;;;;;;5051824;28;20750;-49
2020/12/02 01:12:09;;;;;;;47.33;18.73;;;4.60;99.90;;;;;;5048942;28;20410;-55
2020/12/02 01:14:35;;;;;;;50.08;19.23;;;3.70;99.90;;;;;;5052167;28;20382;-50
2020/12/02 01:17:01;;;;;;;41.28;17.63;;;3.10;99.90;;;;;;5049988;28;20393;-50
2020/12/02 01:19:34;;;;;;;46.28;17.73;;;3.10;99.90;;;;;;5050940;28;20385;-50
2020/12/02 01:22:11;;;;;;;42.47;18.00;;;3.10;99.90;;;;;;5049700;28;20870;-51
2020/12/02 01:24:49;;;;;;;43.43;16.70;;;3.20;99.90;;;;;;5052141;28;20871;-49
2020/12/02 01:27:21;;;;;;;35.10;16.95;;;3.20;99.90;;;;;;5049568;28;20390;-50
2020/12/02 01:29:49;;;;;;;39.05;15.50;;;3.20;99.90;;;;;;5051656;28;20581;-50
2020/12/02 01:32:15;;;;;;;38.75;16.27;;;3.20;99.90;;;;;;5048888;28;20404;-50
2020/12/02 01:34:45;;;;;;;43.25;17.17;;;3.10;99.90;;;;;;5051517;28;20895;-50
2020/12/02 01:37:33;;;;;;;40.17;16.30;;;4.30;99.90;;;;;;5048993;28;20397;-50
2020/12/02 01:40:17;;;;;;;38.38;17.55;;;3.10;99.90;;;;;;5049687;28;20426;-50
2020/12/02 01:43:09;;;;;;;32.35;15.30;;;3.00;99.90;;;;;;5051254;28;20883;-50
2020/12/02 01:45:41;;;;;;;38.28;15.70;;;3.00;99.90;;;;;;5049515;28;20397;-49
2020/12/02 01:48:41;;;;;;;37.13;16.10;;;3.00;99.90;;;;;;5050815;28;20381;-50
2020/12/02 01:51:32;;;;;;;37.50;16.30;;;3.00;99.90;;;;;;5038380;28;20496;-50
2020/12/02 01:54:09;;;;;;;35.90;16.70;;;3.10;99.90;;;;;;5052064;28;20477;-49
2020/12/02 01:56:54;;;;;;;36.60;16.17;;;3.90;99.90;;;;;;5050242;28;20569;-49
2020/12/02 01:59:41;;;;;;;31.10;14.88;;;3.00;99.90;;;;;;5048980;28;20381;-50
2020/12/02 02:02:41;;;;;;;33.67;15.37;;;3.10;99.90;;;;;;5050354;28;20406;-51
2020/12/02 02:05:32;;;;;;;38.20;15.05;;;3.10;99.90;;;;;;5049327;28;20398;-50
2020/12/02 02:07:58;;;;;;;30.95;14.43;;;3.20;99.90;;;;;;5051712;28;20381;-50
2020/12/02 02:10:31;;;;;;;35.10;15.18;;;3.20;99.90;;;;;;5048887;28;21116;-50
2020/12/02 02:13:31;;;;;;;34.20;15.25;;;3.20;99.90;;;;;;5050101;28;20387;-50
2020/12/02 02:16:22;;;;;;;38.60;14.27;;;3.20;99.90;;;;;;5049696;28;20381;-49
2020/12/02 02:18:48;;;;;;;33.00;15.23;;;3.20;99.90;;;;;;5049409;28;20409;-50
2020/12/02 02:21:18;;;;;;;37.38;16.00;;;3.30;99.90;;;;;;5049117;28;20403;-50
2020/12/02 02:23:44;;;;;;;36.33;15.27;;;5.40;99.90;;;;;;5049025;28;20451;-50
2020/12/02 02:26:41;;;;;;;33.83;14.55;;;4.10;99.90;;;;;;5049370;28;20389;-50
2020/12/02 02:29:16;;;;;;;35.70;15.52;;;3.30;99.90;;;;;;5045684;28;20491;-52
2020/12/02 02:32:14;;;;;;;37.25;15.55;;;3.40;99.90;;;;;;5050892;28;20401;-52
2020/12/02 02:34:46;;;;;;;36.38;16.75;;;3.40;99.90;;;;;;5049096;28;21137;-51
2020/12/02 02:37:13;;;;;;;32.28;15.05;;;3.30;99.90;;;;;;5049936;28;20415;-50
2020/12/02 02:39:40;;;;;;;33.95;14.77;;;4.10;99.90;;;;;;5048477;28;20393;-50
2020/12/02 02:42:22;;;;;;;30.45;14.63;;;3.10;99.90;;;;;;5049718;28;20409;-56
2020/12/02 02:44:48;;;;;;;36.15;15.10;;;4.60;99.90;;;;;;5049578;28;20450;-50
2020/12/02 02:47:14;;;;;;;39.97;14.48;;;3.10;99.90;;;;;;5048542;28;20421;-50
2020/12/02 02:49:40;;;;;;;34.88;13.20;;;3.50;99.90;;;;;;5050426;28;20463;-50
2020/12/02 02:52:05;;;;;;;31.45;14.00;;;3.10;99.90;;;;;;5049026;28;20404;-55
2020/12/02 02:54:31;;;;;;;39.17;15.27;;;1.90;99.90;;;;;;5049165;28;20929;-51
2020/12/02 02:56:56;;;;;;;38.85;15.25;;;3.20;99.90;;;;;;5048028;28;20396;-51
2020/12/02 02:59:22;;;;;;;31.60;15.03;;;3.90;99.90;;;;;;5049623;28;20389;-51
2020/12/02 03:01:48;;;;;;;33.38;14.77;;;5.50;99.90;;;;;;5050507;28;20378;-51
2020/12/02 03:04:14;;;;;;;34.30;15.95;;;3.10;99.90;;;;;;5047512;28;20386;-49
2020/12/02 03:06:41;;;;;;;36.35;16.13;;;3.20;99.90;;;;;;5050444;28;20382;-50
2020/12/02 03:09:09;;;;;;;33.42;14.57;;;3.10;99.90;;;;;;5047086;28;20517;-55
2020/12/02 03:11:35;;;;;;;36.45;15.90;;;6.00;99.90;;;;;;5049860;28;20752;-50
2020/12/02 03:14:01;;;;;;;39.22;15.20;;;3.20;99.90;;;;;;5049817;28;20425;-49
2020/12/02 03:16:44;;;;;;;33.50;14.50;;;4.70;99.90;;;;;;5046812;28;20393;-49
2020/12/02 03:19:26;;;;;;;32.88;14.40;;;4.10;99.90;;;;;;5046779;28;20480;-50
2020/12/02 03:21:55;;;;;;;28.58;14.20;;;3.10;99.90;;;;;;5048156;28;20458;-52
2020/12/02 03:24:21;;;;;;;32.25;15.05;;;4.70;99.90;;;;;;5048045;28;20816;-49
2020/12/02 03:26:48;;;;;;;31.30;15.30;;;3.20;99.90;;;;;;5049929;28;20618;-50
2020/12/02 03:29:16;;;;;;;32.80;13.35;;;5.80;99.90;;;;;;5047014;28;20393;-50
2020/12/02 03:31:41;;;;;;;37.53;15.00;;;4.40;99.90;;;;;;5049923;28;20381;-49
2020/12/02 03:34:12;;;;;;;36.60;15.40;;;3.40;99.90;;;;;;5048990;28;20946;-54
2020/12/02 03:36:38;;;;;;;39.35;13.35;;;3.40;99.90;;;;;;5047196;28;20401;-50
2020/12/02 03:39:06;;;;;;;34.33;13.50;;;4.30;99.90;;;;;;5049701;28;20732;-49
2020/12/02 03:41:32;;;;;;;33.63;14.32;;;4.30;99.90;;;;;;5048978;28;20381;-51
2020/12/02 03:43:57;;;;;;;35.63;14.93;;;4.90;99.90;;;;;;5047555;28;20412;-49
2020/12/02 03:46:23;;;;;;;37.10;15.50;;;3.20;99.90;;;;;;5049016;28;20397;-50
2020/12/02 03:48:49;;;;;;;36.53;16.40;;;3.20;99.90;;;;;;5048458;28;20393;-51
2020/12/02 03:51:15;;;;;;;37.50;15.07;;;3.20;99.90;;;;;;5048259;28;20859;-50
2020/12/02 03:53:40;;;;;;;35.90;13.98;;;3.20;99.90;;;;;;5049325;28;20453;-49
2020/12/02 03:56:06;;;;;;;36.65;14.27;;;4.60;99.90;;;;;;5047306;28;20410;-55
2020/12/02 03:58:32;;;;;;;40.05;14.90;;;3.30;99.90;;;;;;5049159;28;20380;-50
2020/12/02 04:00:58;;;;;;;37.33;15.93;;;4.50;99.90;;;;;;5049154;28;20381;-50
2020/12/02 04:03:23;;;;;;;36.10;15.37;;;3.30;99.90;;;;;;5047140;28;20417;-50
2020/12/02 04:05:49;;;;;;;35.25;16.10;;;3.50;99.90;;;;;;5049521;28;20480;-51
2020/12/02 04:08:15;;;;;;;36.30;15.70;;;3.40;99.90;;;;;;5048719;28;20934;-50
2020/12/02 04:10:41;;;;;;;40.25;16.15;;;6.00;99.90;;;;;;5046628;28;20751;-50
2020/12/02 04:13:07;;;;;;;44.67;15.95;;;3.30;99.90;;;;;;5047038;28;20401;-54
2020/12/02 04:15:32;;;;;;;36.60;15.47;;;3.30;99.90;;;;;;5048604;28;20378;-50
2020/12/02 04:17:58;;;;;;;35.83;14.60;;;3.30;99.90;;;;;;5048700;28;20386;-50
2020/12/02 04:20:24;;;;;;;39.88;15.93;;;4.40;99.90;;;;;;5047727;28;20931;-50
2020/12/02 04:22:52;;;;;;;38.05;15.80;;;5.60;99.90;;;;;;5048953;28;20413;-50
2020/12/02 04:25:18;;;;;;;37.00;15.57;;;3.20;99.90;;;;;;5046603;28;20490;-50
2020/12/02 04:27:44;;;;;;;34.20;15.57;;;4.30;99.90;;;;;;5049212;28;20369;-50
2020/12/02 04:30:11;;;;;;;31.20;14.05;;;3.20;99.90;;;;;;5048596;28;20424;-50
2020/12/02 04:32:37;;;;;;;37.83;15.20;;;3.30;99.90;;;;;;5046995;28;20397;-50
2020/12/02 04:35:04;;;;;;;33.20;14.87;;;5.10;99.90;;;;;;5049243;28;20716;-50
2020/12/02 04:37:32;;;;;;;38.58;16.40;;;5.90;99.90;;;;;;5048437;28;20397;-50
2020/12/02 04:39:59;;;;;;;33.97;15.15;;;4.10;99.90;;;;;;5047048;28;20393;-50
2020/12/02 04:42:30;;;;;;;38.33;15.65;;;3.60;99.90;;;;;;5046771;28;20417;-53
2020/12/02 04:44:57;;;;;;;43.10;16.50;;;3.20;99.90;;;;;;5028779;28;20387;-50
2020/12/02 04:47:38;;;;;;;41.30;16.85;;;3.10;99.90;;;;;;5031246;28;20483;-49
2020/12/02 04:50:25;;;;;;;39.17;15.45;;;3.20;99.90;;;;;;5041382;28;20394;-49
2020/12/02 04:53:05;;;;;;;33.70;14.02;;;4.30;99.90;;;;;;5051953;28;20406;-49
2020/12/02 04:55:31;;;;;;;35.33;15.38;;;3.20;99.90;;;;;;5052764;28;20386;-51
2020/12/02 04:57:57;;;;;;;33.33;15.00;;;3.30;99.90;;;;;;5053983;28;20805;-50
2020/12/02 05:00:29;;;;;;;34.37;14.90;;;3.40;99.90;;;;;;5051599;28;20415;-50
2020/12/02 05:03:08;;;;;;;37.92;15.43;;;3.30;99.90;;;;;;5050594;28;20424;-50
2020/12/02 05:05:34;;;;;;;34.85;15.88;;;5.30;99.90;;;;;;5051770;28;21050;-51
2020/12/02 05:08:20;;;;;;;34.15;15.13;;;3.30;99.90;;;;;;5055758;28;20389;-51
2020/12/02 05:10:45;;;;;;;36.40;16.00;;;3.20;99.90;;;;;;5050486;28;20938;-53
2020/12/02 05:13:11;;;;;;;32.45;15.15;;;5.80;99.90;;;;;;5051780;28;20385;-51
2020/12/02 05:15:37;;;;;;;36.03;16.13;;;3.20;99.90;;;;;;5048488;28;20459;-51
2020/12/02 05:18:15;;;;;;;36.45;15.40;;;3.30;99.90;;;;;;5066942;28;20477;-51
2020/12/02 05:20:58;;;;;;;36.65;16.20;;;3.20;99.90;;;;;;5032565;28;20394;-50
2020/12/02 05:23:24;;;;;;;34.33;16.17;;;5.90;99.90;;;;;;5031057;28;20411;-50
2020/12/02 05:25:49;;;;;;;33.70;17.20;;;2.90;99.90;;;;;;5046396;28;20708;-50
2020/12/02 05:28:23;;;;;;;35.37;16.90;;;2.80;99.90;;;;;;5050904;28;20397;-50
2020/12/02 05:30:59;;;;;;;39.40;17.60;;;2.90;99.90;;;;;;5050822;28;20385;-50
2020/12/02 05:33:24;;;;;;;38.80;15.97;;;2.90;99.90;;;;;;5051325;28;20378;-50
2020/12/02 05:35:53;;;;;;;37.50;17.70;;;2.90;99.90;;;;;;5049258;28;20401;-50
2020/12/02 05:38:30;;;;;;;32.90;15.57;;;5.10;99.90;;;;;;5047206;28;20412;-50
2020/12/02 05:40:57;;;;;;;29.38;14.60;;;2.90;99.90;;;;;;5034831;28;20374;-50
2020/12/02 05:44:05;;;;;;;33.22;15.70;;;3.30;99.90;;;;;;5046187;28;20443;-50
2020/12/02 05:46:44;;;;;;;33.17;16.17;;;2.90;99.90;;;;;;5070288;28;20402;-52
2020/12/02 05:49:12;;;;;;;30.98;15.18;;;3.00;99.90;;;;;;5048052;28;20468;-56
2020/12/02 05:51:40;;;;;;;30.73;15.13;;;3.10;99.90;;;;;;5063638;28;20408;-50
2020/12/02 05:54:13;;;;;;;28.65;14.02;;;4.10;99.90;;;;;;5048658;28;20704;-50
2020/12/02 05:56:39;;;;;;;25.15;13.73;;;4.50;99.90;;;;;;5050953;28;20505;-50
2020/12/02 05:59:07;;;;;;;32.00;15.15;;;5.80;99.90;;;;;;5054449;28;20488;-50
2020/12/02 06:01:34;;;;;;;30.15;15.05;;;3.30;99.90;;;;;;5053295;28;21413;-50
2020/12/02 06:04:00;;;;;;;28.67;15.07;;;3.70;99.90;;;;;;5031389;28;20414;-50
2020/12/02 06:06:30;;;;;;;29.05;14.55;;;3.90;99.90;;;;;;5044265;28;20397;-50
2020/12/02 06:08:57;;;;;;;30.73;14.48;;;5.90;99.90;;;;;;5041447;28;20772;-50
2020/12/02 06:11:33;;;;;;;31.17;15.75;;;3.40;99.90;;;;;;5041821;28;20844;-50
2020/12/02 06:14:17;;;;;;;29.35;15.45;;;3.40;99.90;;;;;;5037147;28;20421;-50
2020/12/02 06:16:48;;;;;;;31.37;16.30;;;4.80;99.90;;;;;;5052648;28;20377;-51
2020/12/02 06:19:30;;;;;;;27.60;15.65;;;3.90;99.90;;;;;;5047069;28;20402;-51
2020/12/02 06:21:59;;;;;;;33.93;16.10;;;3.40;99.90;;;;;;5050570;28;20914;-50
2020/12/02 06:24:41;;;;;;;27.92;15.38;;;3.40;99.90;;;;;;5048105;28;20889;-50
2020/12/02 06:27:16;;;;;;;30.83;16.05;;;4.70;99.90;;;;;;5050591;28;20448;-51
2020/12/02 06:29:44;;;;;;;33.70;15.80;;;3.20;99.90;;;;;;5048557;28;20965;-50
2020/12/02 06:32:13;;;;;;;30.65;14.50;;;3.20;99.90;;;;;;5049352;28;20378;-55
2020/12/02 06:34:39;;;;;;;33.53;16.77;;;5.80;99.90;;;;;;5048802;28;21251;-50
2020/12/02 06:37:26;;;;;;;35.05;15.55;;;3.00;99.90;;;;;;5049649;28;20382;-52
2020/12/02 06:39:59;;;;;;;35.28;17.55;;;3.00;99.90;;;;;;5043169;28;20753;-50
2020/12/02 06:42:25;;;;;;;34.58;18.05;;;4.00;99.90;;;;;;5048544;28;20397;-50
2020/12/02 06:45:17;;;;;;;33.63;16.50;;;3.80;99.90;;;;;;5047850;28;20921;-50
2020/12/02 06:47:48;;;;;;;35.30;17.13;;;3.00;99.90;;;;;;5047182;28;20424;-51
2020/12/02 06:50:15;;;;;;;38.03;17.20;;;3.10;99.90;;;;;;5047540;28;20397;-51
2020/12/02 06:52:41;;;;;;;33.40;17.00;;;5.40;99.90;;;;;;5037104;28;20810;-50
2020/12/02 06:55:15;;;;;;;37.78;18.77;;;3.10;99.90;;;;;;5042314;28;20444;-50
2020/12/02 06:57:41;;;;;;;39.25;18.45;;;3.10;99.90;;;;;;5040354;28;20463;-50
2020/12/02 07:00:19;;;;;;;37.72;18.08;;;3.20;99.90;;;;;;5048138;28;20401;-51
2020/12/02 07:02:53;;;;;;;36.25;17.67;;;3.30;99.90;;;;;;5040528;28;20417;-52
2020/12/02 07:05:34;;;;;;;36.55;18.88;;;3.20;99.90;;;;;;5046965;28;20787;-49
2020/12/02 07:08:13;;;;;;;36.90;18.27;;;4.00;99.90;;;;;;5041200;28;20405;-51
2020/12/02 07:10:40;;;;;;;38.50;17.88;;;3.70;99.90;;;;;;5044661;28;20798;-51
2020/12/02 07:13:12;;;;;;;37.55;18.40;;;5.30;99.90;;;;;;5047959;28;20415;-50
2020/12/02 07:15:38;;;;;;;32.00;16.55;;;3.10;99.90;;;;;;5047380;28;20530;-52
2020/12/02 07:18:19;;;;;;;34.30;18.00;;;3.00;99.90;;;;;;5047257;28;20515;-50
2020/12/02 07:20:58;;;;;;;36.30;17.30;;;3.10;99.90;;;;;;5046573;28;20884;-51
2020/12/02 07:23:23;;;;;;;37.05;17.27;;;3.10;99.90;;;;;;5050863;28;20436;-52
2020/12/02 07:25:49;;;;;;;32.63;16.33;;;3.40;99.90;;;;;;5048925;28;20373;-50
2020/12/02 07:28:20;;;;;;;37.58;18.27;;;3.60;99.90;;;;;;5046673;28;20575;-51
2020/12/02 07:30:47;;;;;;;35.00;17.55;;;3.20;99.90;;;;;;5048663;28;20385;-50
2020/12/02 07:33:17;;;;;;;37.87;18.20;;;3.20;99.90;;;;;;5048573;28;20878;-51
2020/12/02 07:35:44;;;;;;;32.03;18.10;;;3.20;99.90;;;;;;5047384;28;20397;-50
2020/12/02 07:38:13;;;;;;;32.88;16.90;;;3.80;99.90;;;;;;5041865;28;20396;-56
2020/12/02 07:40:39;;;;;;;30.15;16.20;;;3.30;99.90;;;;;;5046399;28;20472;-50
2020/12/02 07:43:17;;;;;;;29.80;16.63;;;3.40;99.90;;;;;;5047794;28;20420;-51
2020/12/02 07:45:43;;;;;;;30.27;16.30;;;3.40;99.90;;;;;;5047222;28;20379;-51
2020/12/02 07:48:16;;;;;;;28.08;15.40;;;3.40;99.90;;;;;;5046754;28;20423;-56
2020/12/02 07:50:53;;;;;;;30.92;15.82;;;3.50;99.90;;;;;;5048262;28;20464;-51
2020/12/02 07:53:47;;;;;;;29.48;15.77;;;4.50;99.90;;;;;;5047678;28;20397;-52
2020/12/02 07:56:18;;;;;;;28.35;15.10;;;3.60;99.90;;;;;;5048064;28;20388;-51
2020/12/02 07:58:45;;;;;;;29.15;15.48;;;4.00;99.90;;;;;;5047131;28;20385;-50
2020/12/02 08:01:34;;;;;;;28.98;14.55;;;3.80;99.90;;;;;;5048377;28;20478;-56
2020/12/02 08:04:21;;;;;;;27.70;14.18;;;3.80;99.90;;;;;;5047701;28;20469;-51
2020/12/02 08:06:57;;;;;;;27.15;14.75;;;3.70;99.90;;;;;;5046731;28;20406;-51
2020/12/02 08:09:23;;;;;;;28.63;14.57;;;3.50;99.90;;;;;;5040390;28;20561;-51
2020/12/02 08:11:54;;;;;;;33.40;16.20;;;3.40;99.90;;;;;;5046445;28;20586;-51
2020/12/02 08:14:27;;;;;;;27.27;14.63;;;3.60;99.90;;;;;;5047464;28;20447;-50
2020/12/02 08:16:55;;;;;;;28.85;14.23;;;3.70;99.90;;;;;;5048015;28;20370;-52
2020/12/02 08:19:37;;;;;;;34.92;16.27;;;3.70;99.90;;;;;;5046774;28;20413;-51
2020/12/02 08:22:04;;;;;;;27.27;14.60;;;3.70;99.90;;;;;;5050537;28;20435;-51
2020/12/02 08:24:43;;;;;;;27.40;15.48;;;3.70;99.90;;;;;;5051708;28;20389;-50
2020/12/02 08:27:11;;;;;;;28.98;15.02;;;3.70;99.90;;;;;;5053083;28;20381;-51
2020/12/02 08:29:37;;;;;;;28.30;15.33;;;3.80;99.90;;;;;;5049681;28;20409;-53
2020/12/02 08:32:29;;;;;;;31.00;15.60;;;4.70;99.90;;;;;;5051412;28;20416;-51
2020/12/02 08:34:55;;;;;;;27.20;14.35;;;3.70;99.90;;;;;;5051261;28;20764;-51
2020/12/02 08:37:23;;;;;;;29.03;14.77;;;3.70;99.90;;;;;;5040535;28;20954;-56
2020/12/02 08:39:52;;;;;;;27.95;14.95;;;3.70;99.90;;;;;;5049647;28;20466;-50
2020/12/02 08:42:32;;;;;;;31.08;15.13;;;3.60;99.90;;;;;;5054336;28;20970;-50
2020/12/02 08:45:15;;;;;;;29.75;14.55;;;3.60;99.90;;;;;;5044388;28;20785;-53
2020/12/02 08:47:41;;;;;;;34.38;15.68;;;3.40;99.90;;;;;;5037450;28;20412;-51
2020/12/02 08:50:19;;;;;;;30.47;15.77;;;3.40;99.90;;;;;;5039290;28;20847;-50
2020/12/02 08:52:50;;;;;;;32.87;16.00;;;3.50;99.90;;;;;;5041539;28;20417;-51
2020/12/02 08:55:16;;;;;;;31.67;15.65;;;3.60;99.90;;;;;;5044386;28;20409;-51
2020/12/02 08:57:41;;;;;;;32.33;15.88;;;4.70;99.90;;;;;;5038850;28;20402;-50
2020/12/02 09:00:07;;;;;;;31.90;16.50;;;5.60;99.90;;;;;;5041071;28;20393;-51
2020/12/02 09:02:33;;;;;;;33.13;17.63;;;3.70;99.90;;;;;;5044412;28;20786;-51
2020/12/02 09:04:58;;;;;;;31.63;15.95;;;3.70;99.90;;;;;;5044708;28;20902;-50
2020/12/02 09:07:24;;;;;;;34.05;16.60;;;4.10;99.90;;;;;;5040320;28;20385;-51
2020/12/02 09:09:50;;;;;;;32.30;16.20;;;3.80;99.90;;;;;;5041087;28;20414;-50
2020/12/02 09:12:15;;;;;;;31.73;17.17;;;4.70;99.90;;;;;;5045627;28;20801;-51
2020/12/02 09:14:41;;;;;;;33.60;17.67;;;3.70;99.90;;;;;;5046645;28;20875;-50
2020/12/02 09:17:06;;;;;;;33.97;18.33;;;3.80;99.90;;;;;;5045348;28;20491;-51
2020/12/02 09:19:32;;;;;;;31.38;15.18;;;3.90;99.90;;;;;;5045710;28;20476;-50
2020/12/02 09:21:58;;;;;;;27.87;13.50;;;3.90;99.90;;;;;;5049757;28;20867;-50
2020/12/02 09:24:23;;;;;;;27.85;15.65;;;3.90;99.90;;;;;;5046685;28;20409;-51
2020/12/02 09:26:49;;;;;;;27.38;15.13;;;3.80;99.90;;;;;;5045687;28;20409;-51
2020/12/02 09:29:15;;;;;;;26.70;14.27;;;3.80;99.90;;;;;;5040942;28;20393;-55
2020/12/02 09:31:41;;;;;;;26.60;13.88;;;3.80;99.90;;;;;;5037403;28;20555;-52
2020/12/02 09:34:08;;;;;;;26.50;12.50;;;3.70;99.90;;;;;;5034876;28;20397;-50
2020/12/02 09:36:35;;;;;;;27.30;13.70;;;3.80;99.90;;;;;;5037935;28;20381;-50
2020/12/02 09:39:02;;;;;;;24.35;12.48;;;3.80;99.90;;;;;;5042603;28;20875;-51
2020/12/02 09:41:35;;;;;;;25.27;12.50;;;3.70;99.90;;;;;;5044262;28;20392;-51
2020/12/02 09:44:24;;;;;;;27.65;12.10;;;3.70;99.90;;;;;;5044873;28;20500;-51
2020/12/02 09:47:16;;;;;;;24.45;13.07;;;3.70;99.90;;;;;;5046640;28;20393;-53
2020/12/02 09:49:45;;;;;;;23.17;12.93;;;3.70;99.90;;;;;;5047050;28;20441;-54
2020/12/02 09:52:31;;;;;;;23.50;11.90;;;5.00;99.90;;;;;;5047681;28;20440;-56
2020/12/02 09:54:59;;;;;;;23.58;11.77;;;3.70;99.90;;;;;;5046682;28;20406;-50
2020/12/02 09:57:30;;;;;;;21.53;11.33;;;3.70;99.90;;;;;;5048115;28;20393;-50
2020/12/02 09:59:59;;;;;;;23.40;12.10;;;4.50;99.90;;;;;;5039152;28;20405;-52
2020/12/02 10:02:36;;;;;;;25.38;11.15;;;3.70;99.90;;;;;;5032550;28;20494;-51
2020/12/02 10:05:43;;;;;;;29.10;13.68;;;3.80;99.90;;;;;;5034137;28;20397;-50
2020/12/02 10:08:45;;;;;;;31.63;14.57;;;3.80;99.90;;;;;;5042016;28;20894;-51
2020/12/02 10:11:20;;;;;;;22.48;11.55;;;3.90;99.90;;;;;;5044901;28;20927;-55
2020/12/02 10:14:03;;;;;;;22.23;11.70;;;3.90;99.90;;;;;;5035994;28;20407;-50
2020/12/02 10:16:43;;;;;;;23.10;11.40;;;4.00;99.90;;;;;;5036340;28;20407;-50
2020/12/02 10:19:24;;;;;;;27.08;12.73;;;4.10;99.90;;;;;;5035097;28;20401;-51
2020/12/02 10:22:08;;;;;;;30.30;15.75;;;4.00;99.90;;;;;;5032515;28;20409;-52
2020/12/02 10:24:58;;;;;;;29.98;14.32;;;3.90;99.90;;;;;;5045537;28;20502;-51
2020/12/02 10:27:48;;;;;;;24.73;12.03;;;3.90;99.90;;;;;;5040009;28;20830;-50
2020/12/02 10:30:22;;;;;;;22.00;11.20;;;3.70;99.90;;;;;;5044145;28;20393;-56
2020/12/02 10:32:56;;;;;;;24.40;11.43;;;3.70;99.90;;;;;;5049707;28;20416;-51
2020/12/02 10:35:23;;;;;;;23.40;11.07;;;3.70;99.90;;;;;;5046221;28;20394;-51
2020/12/02 10:37:54;;;;;;;25.83;11.27;;;3.70;99.90;;;;;;5044559;28;20381;-52
2020/12/02 10:40:20;;;;;;;25.60;12.15;;;5.30;99.90;;;;;;5035162;28;20425;-51
2020/12/02 10:42:55;;;;;;;23.95;11.35;;;3.90;99.90;;;;;;5042246;28;20470;-50
2020/12/02 10:45:22;;;;;;;25.80;12.52;;;4.00;99.90;;;;;;5043032;28;20385;-51
2020/12/02 10:48:10;;;;;;;24.70;11.70;;;5.00;99.90;;;;;;5040498;28;20417;-50
2020/12/02 10:50:38;;;;;;;24.20;11.40;;;3.90;99.90;;;;;;5039280;28;20902;-50
2020/12/02 10:53:10;;;;;;;24.73;12.43;;;3.90;99.90;;;;;;5044134;28;20395;-51
2020/12/02 10:55:36;;;;;;;22.98;11.70;;;3.90;99.90;;;;;;5043608;28;20412;-51
2020/12/02 10:58:24;;;;;;;25.10;10.75;;;4.00;99.90;;;;;;5043849;28;20420;-50
2020/12/02 11:00:53;;;;;;;26.60;11.70;;;4.60;99.90;;;;;;5038295;28;20415;-52
2020/12/02 11:03:34;;;;;;;24.95;13.15;;;4.00;99.90;;;;;;5045294;28;20413;-51
2020/12/02 11:06:03;;;;;;;25.00;10.93;;;4.10;99.90;;;;;;5037793;28;20797;-51
2020/12/02 11:08:43;;;;;;;24.97;12.30;;;4.00;99.90;;;;;;5039079;28;20394;-51
2020/12/02 11:11:19;;;;;;;27.23;13.10;;;4.10;99.90;;;;;;5043558;28;20472;-53
2020/12/02 11:14:05;;;;;;;37.40;16.20;;;4.10;99.90;;;;;;5039366;28;20408;-51
2020/12/02 11:16:55;;;;;;;27.10;13.57;;;4.10;99.90;;;;;;5039274;28;20402;-51
2020/12/02 11:19:30;;;;;;;32.08;14.27;;;4.10;99.90;;;;;;5039534;28;20410;-51
2020/12/02 11:22:11;;;;;;;38.40;17.75;;;4.00;99.90;;;;;;5041887;28;20440;-51
2020/12/02 11:24:57;;;;;;;36.35;16.13;;;4.10;99.90;;;;;;5044458;28;20470;-50
2020/12/02 11:27:23;;;;;;;33.67;15.90;;;4.00;99.90;;;;;;5041405;28;20400;-53
2020/12/02 11:29:50;;;;;;;34.70;15.95;;;6.00;99.90;;;;;;5041806;28;20389;-52
2020/12/02 11:32:36;;;;;;;29.77;15.07;;;3.80;99.90;;;;;;5033877;28;20881;-51
2020/12/02 11:35:37;;;;;;;29.13;14.50;;;3.80;99.90;;;;;;5043803;28;20873;-51
2020/12/02 11:38:26;;;;;;;35.42;16.83;;;3.70;99.90;;;;;;5043124;28;20902;-52
2020/12/02 11:41:15;;;;;;;34.43;18.50;;;3.70;99.90;;;;;;5043273;28;20733;-51
2020/12/02 11:43:46;;;;;;;36.53;16.25;;;3.80;99.90;;;;;;5040558;28;20413;-51
2020/12/02 11:46:15;;;;;;;29.75;14.77;;;5.60;99.90;;;;;;5044119;28;20409;-56
2020/12/02 11:48:47;;;;;;;28.50;13.88;;;5.50;99.90;;;;;;5039733;28;21136;-51
2020/12/02 11:51:38;;;;;;;25.67;13.25;;;4.50;99.90;;;;;;5046215;28;20401;-56
2020/12/02 11:54:12;;;;;;;26.63;12.48;;;3.90;99.90;;;;;;5043310;28;20412;-54
2020/12/02 11:56:44;;;;;;;26.63;12.85;;;3.70;99.90;;;;;;5075012;28;20383;-51
2020/12/02 11:59:25;;;;;;;27.20;12.85;;;3.60;99.90;;;;;;5050256;28;20433;-51
2020/12/02 12:01:53;;;;;;;34.20;15.32;;;2.30;99.90;;;;;;5048339;28;20395;-51
2020/12/02 12:04:34;;;;;;;32.67;14.57;;;3.90;99.90;;;;;;5046871;28;20796;-51
2020/12/02 12:07:17;;;;;;;27.55;12.93;;;3.90;99.90;;;;;;5049037;28;20484;-51
2020/12/02 12:09:50;;;;;;;29.10;13.68;;;3.90;99.90;;;;;;5047724;28;20404;-51
2020/12/02 12:12:26;;;;;;;25.85;12.43;;;3.90;99.90;;;;;;5046596;28;20539;-55
2020/12/02 12:15:24;;;;;;;26.27;13.63;;;3.90;99.90;;;;;;5037812;28;20441;-51
2020/12/02 12:17:53;;;;;;;27.98;12.20;;;3.90;99.90;;;;;;5046656;28;20401;-50
2020/12/02 12:20:25;;;;;;;26.02;11.20;;;3.80;99.90;;;;;;5039780;28;20387;-50
2020/12/02 12:23:00;;;;;;;26.95;12.60;;;6.40;99.90;;;;;;5040972;28;20425;-50
2020/12/02 12:25:35;;;;;;;28.73;12.43;;;3.90;99.90;;;;;;5045004;28;20880;-50
2020/12/02 12:28:26;;;;;;;25.33;12.50;;;3.80;99.90;;;;;;5043943;28;20406;-50
2020/12/02 12:30:54;;;;;;;33.33;14.30;;;3.80;99.90;;;;;;5034586;28;20426;-51
2020/12/02 12:33:30;;;;;;;27.40;12.30;;;6.20;99.90;;;;;;5047315;28;20589;-51
2020/12/02 12:36:00;;;;;;;29.17;13.53;;;3.80;99.90;;;;;;5044340;28;20407;-52
2020/12/02 12:38:46;;;;;;;31.00;13.18;;;4.60;99.90;;;;;;5032329;28;20434;-50
2020/12/02 12:41:23;;;;;;;28.95;13.15;;;3.60;99.90;;;;;;5043721;28;20428;-51
2020/12/02 12:44:09;;;;;;;31.27;13.82;;;3.70;99.90;;;;;;5038815;28;20417;-50
2020/12/02 12:46:48;;;;;;;28.23;12.43;;;3.80;99.90;;;;;;5045891;28;20393;-51
2020/12/02 12:49:15;;;;;;;32.25;14.10;;;3.70;99.90;;;;;;5037979;28;20405;-55
2020/12/02 12:51:44;;;;;;;28.17;13.15;;;3.80;99.90;;;;;;5043680;28;20400;-51
2020/12/02 12:54:16;;;;;;;31.20;14.98;;;3.80;99.90;;;;;;5045102;28;21092;-50
2020/12/02 12:56:43;;;;;;;32.17;13.30;;;3.90;99.90;;;;;;5039072;28;20395;-51
2020/12/02 12:59:14;;;;;;;31.30;13.75;;;3.70;99.90;;;;;;5038124;28;20408;-54
2020/12/02 13:01:40;;;;;;;30.42;14.45;;;3.70;99.90;;;;;;5048686;28;20857;-51
2020/12/02 13:04:13;;;;;;;30.45;13.45;;;3.60;99.90;;;;;;5044758;28;20417;-50
2020/12/02 13:07:00;;;;;;;30.40;13.53;;;3.60;99.90;;;;;;5041814;28;20409;-50